sensor_id;sensor_type;location;lat;lon;timestamp;temperature;humidity
3256;DHT22;1640;48.504;9.224;2023-04-30T00:01:08;11.50;99.90
3256;DHT22;1640;48.504;9.224;2023-04-30T00:03:35;11.50;99.90
3256;DHT22;1640;48.504;9.224;2023-04-30T00:06:03;11.50;99.90
3256;DHT22;1640;48.504;9.224;2023-04-30T00:08:32;11.50;99.90
3256;DHT22;1640;48.504;9.224;2023-04-30T00:10:59;11.40;99.90
3256;DHT22;1640;48.504;9.224;2023-04-30T00:13:27;11.50;99.90
3256;DHT22;1640;48.504;9.224;2023-04-30T00:15:54;11.50;99.90
3256;DHT22;1640;48.504;9.224;2023-04-30T00:18:21;11.40;99.90
3256;DHT22;1640;48.504;9.224;2023-04-30T00:20:49;11.40;99.90
3256;DHT22;1640;48.504;9.224;2023-04-30T00:23:18;11.50;99.90
3256;DHT22;1640;48.504;9.224;2023-04-30T00:25:47;11.60;99.90
3256;DHT22;1640;48.504;9.224;2023-04-30T00:28:15;11.60;99.90
3256;DHT22;1640;48.504;9.224;2023-04-30T00:30:42;11.60;99.90
3256;DHT22;1640;48.504;9.224;2023-04-30T00:33:10;11.70;99.90
3256;DHT22;1640;48.504;9.224;2023-04-30T00:35:37;11.70;99.90
3256;DHT22;1640;48.504;9.224;2023-04-30T00:38:05;11.80;99.90
3256;DHT22;1640;48.504;9.224;2023-04-30T00:40:33;11.80;99.90
3256;DHT22;1640;48.504;9.224;2023-04-30T00:43:03;11.80;99.90
3256;DHT22;1640;48.504;9.224;2023-04-30T00:45:31;11.80;99.90
3256;DHT22;1640;48.504;9.224;2023-04-30T00:47:58;11.80;99.90
3256;DHT22;1640;48.504;9.224;2023-04-30T00:50:26;11.80;99.90
3256;DHT22;1640;48.504;9.224;2023-04-30T00:52:54;11.80;99.90
3256;DHT22;1640;48.504;9.224;2023-04-30T00:55:22;11.80;99.90
3256;DHT22;1640;48.504;9.224;2023-04-30T00:57:50;11.80;99.90
3256;DHT22;1640;48.504;9.224;2023-04-30T01:00:19;11.80;99.90
3256;DHT22;1640;48.504;9.224;2023-04-30T01:02:48;11.80;99.90
3256;DHT22;1640;48.504;9.224;2023-04-30T01:05:16;11.80;99.90
3256;DHT22;1640;48.504;9.224;2023-04-30T01:07:44;11.90;99.90
3256;DHT22;1640;48.504;9.224;2023-04-30T01:10:12;11.80;99.90
3256;DHT22;1640;48.504;9.224;2023-04-30T01:12:45;11.80;99.90
3256;DHT22;1640;48.504;9.224;2023-04-30T01:15:23;11.80;99.90
3256;DHT22;1640;48.504;9.224;2023-04-30T01:17:55;11.80;99.90
3256;DHT22;1640;48.504;9.224;2023-04-30T01:20:23;11.80;99.90
3256;DHT22;1640;48.504;9.224;2023-04-30T01:22:55;11.70;99.90
3256;DHT22;1640;48.504;9.224;2023-04-30T01:25:35;11.70;99.90
3256;DHT22;1640;48.504;9.224;2023-04-30T01:28:13;11.70;99.90
3256;DHT22;1640;48.504;9.224;2023-04-30T01:30:41;11.70;99.90
3256;DHT22;1640;48.504;9.224;2023-04-30T01:33:09;11.70;99.90
3256;DHT22;1640;48.504;9.224;2023-04-30T01:36:04;11.70;99.90
3256;DHT22;1640;48.504;9.224;2023-04-30T01:38:47;11.60;99.90
3256;DHT22;1640;48.504;9.224;2023-04-30T01:41:23;11.50;99.90
3256;DHT22;1640;48.504;9.224;2023-04-30T01:44:05;11.60;99.90
3256;DHT22;1640;48.504;9.224;2023-04-30T01:46:34;11.50;99.90
3256;DHT22;1640;48.504;9.224;2023-04-30T01:49:07;11.60;99.90
3256;DHT22;1640;48.504;9.224;2023-04-30T01:51:40;11.50;99.90
3256;DHT22;1640;48.504;9.224;2023-04-30T01:54:14;11.40;99.90
3256;DHT22;1640;48.504;9.224;2023-04-30T01:56:59;11.30;99.90
3256;DHT22;1640;48.504;9.224;2023-04-30T01:59:31;11.30;99.90
3256;DHT22;1640;48.504;9.224;2023-04-30T02:01:59;11.20;99.90
3256;DHT22;1640;48.504;9.224;2023-04-30T02:04:27;11.10;99.90
3256;DHT22;1640;48.504;9.224;2023-04-30T02:06:54;11.10;99.90
3256;DHT22;1640;48.504;9.224;2023-04-30T02:09:23;11.10;99.90
3256;DHT22;1640;48.504;9.224;2023-04-30T02:11:51;11.00;99.90
3256;DHT22;1640;48.504;9.224;2023-04-30T02:14:18;11.00;99.90
3256;DHT22;1640;48.504;9.224;2023-04-30T02:16:47;10.90;99.90
3256;DHT22;1640;48.504;9.224;2023-04-30T02:19:15;10.90;99.90
3256;DHT22;1640;48.504;9.224;2023-04-30T02:21:42;10.80;99.90
3256;DHT22;1640;48.504;9.224;2023-04-30T02:24:10;10.70;99.90
3256;DHT22;1640;48.504;9.224;2023-04-30T02:26:37;10.70;99.90
3256;DHT22;1640;48.504;9.224;2023-04-30T02:29:05;10.70;99.90
3256;DHT22;1640;48.504;9.224;2023-04-30T02:31:32;10.60;99.90
3256;DHT22;1640;48.504;9.224;2023-04-30T02:34:01;10.50;99.90
3256;DHT22;1640;48.504;9.224;2023-04-30T02:36:29;10.50;99.90
3256;DHT22;1640;48.504;9.224;2023-04-30T02:38:58;10.40;99.90
3256;DHT22;1640;48.504;9.224;2023-04-30T02:41:26;10.30;99.90
3256;DHT22;1640;48.504;9.224;2023-04-30T02:43:53;10.30;99.90
3256;DHT22;1640;48.504;9.224;2023-04-30T02:46:21;10.20;99.90
3256;DHT22;1640;48.504;9.224;2023-04-30T02:48:48;10.10;99.90
3256;DHT22;1640;48.504;9.224;2023-04-30T02:51:17;10.10;99.90
3256;DHT22;1640;48.504;9.224;2023-04-30T02:53:44;10.00;99.90
3256;DHT22;1640;48.504;9.224;2023-04-30T02:56:12;9.90;99.90
3256;DHT22;1640;48.504;9.224;2023-04-30T02:58:39;9.80;99.90
3256;DHT22;1640;48.504;9.224;2023-04-30T03:01:07;9.70;99.90
3256;DHT22;1640;48.504;9.224;2023-04-30T03:03:34;9.70;99.90
3256;DHT22;1640;48.504;9.224;2023-04-30T03:06:02;9.60;99.90
3256;DHT22;1640;48.504;9.224;2023-04-30T03:08:31;9.50;99.90
3256;DHT22;1640;48.504;9.224;2023-04-30T03:10:59;9.50;99.90
3256;DHT22;1640;48.504;9.224;2023-04-30T03:13:26;9.40;99.90
3256;DHT22;1640;48.504;9.224;2023-04-30T03:15:57;9.40;99.90
3256;DHT22;1640;48.504;9.224;2023-04-30T03:18:25;9.30;99.90
3256;DHT22;1640;48.504;9.224;2023-04-30T03:20:53;9.30;99.90
3256;DHT22;1640;48.504;9.224;2023-04-30T03:23:20;9.20;99.90
3256;DHT22;1640;48.504;9.224;2023-04-30T03:25:49;9.10;99.90
3256;DHT22;1640;48.504;9.224;2023-04-30T03:28:17;9.00;99.90
3256;DHT22;1640;48.504;9.224;2023-04-30T03:30:45;9.00;99.90
3256;DHT22;1640;48.504;9.224;2023-04-30T03:33:12;9.00;99.90
3256;DHT22;1640;48.504;9.224;2023-04-30T03:35:40;8.90;99.90
3256;DHT22;1640;48.504;9.224;2023-04-30T03:38:08;9.00;99.90
3256;DHT22;1640;48.504;9.224;2023-04-30T03:40:35;9.00;99.90
3256;DHT22;1640;48.504;9.224;2023-04-30T03:43:04;8.90;99.90
3256;DHT22;1640;48.504;9.224;2023-04-30T03:45:32;8.80;99.90
3256;DHT22;1640;48.504;9.224;2023-04-30T03:47:59;8.80;99.90
3256;DHT22;1640;48.504;9.224;2023-04-30T03:50:27;8.80;99.90
3256;DHT22;1640;48.504;9.224;2023-04-30T03:52:54;8.70;99.90
3256;DHT22;1640;48.504;9.224;2023-04-30T03:55:22;8.60;99.90
3256;DHT22;1640;48.504;9.224;2023-04-30T03:57:50;8.60;99.90
3256;DHT22;1640;48.504;9.224;2023-04-30T04:00:19;8.50;99.90
3256;DHT22;1640;48.504;9.224;2023-04-30T04:02:46;8.50;99.90
3256;DHT22;1640;48.504;9.224;2023-04-30T04:05:14;8.40;99.90
3256;DHT22;1640;48.504;9.224;2023-04-30T04:07:42;8.40;99.90
3256;DHT22;1640;48.504;9.224;2023-04-30T04:10:10;8.40;99.90
3256;DHT22;1640;48.504;9.224;2023-04-30T04:12:37;8.30;99.90
3256;DHT22;1640;48.504;9.224;2023-04-30T04:15:06;8.30;99.90
3256;DHT22;1640;48.504;9.224;2023-04-30T04:17:35;8.20;99.90
3256;DHT22;1640;48.504;9.224;2023-04-30T04:20:02;8.20;99.90
3256;DHT22;1640;48.504;9.224;2023-04-30T04:22:32;8.20;99.90
3256;DHT22;1640;48.504;9.224;2023-04-30T04:24:59;8.20;99.90
3256;DHT22;1640;48.504;9.224;2023-04-30T04:27:27;8.20;99.90
3256;DHT22;1640;48.504;9.224;2023-04-30T04:29:54;8.20;99.90
3256;DHT22;1640;48.504;9.224;2023-04-30T04:32:22;8.20;99.90
3256;DHT22;1640;48.504;9.224;2023-04-30T04:34:51;8.20;99.90
3256;DHT22;1640;48.504;9.224;2023-04-30T04:37:20;8.30;99.90
3256;DHT22;1640;48.504;9.224;2023-04-30T04:39:47;8.40;99.90
3256;DHT22;1640;48.504;9.224;2023-04-30T04:42:15;8.40;99.90
3256;DHT22;1640;48.504;9.224;2023-04-30T04:44:43;8.50;99.90
3256;DHT22;1640;48.504;9.224;2023-04-30T04:47:11;8.60;99.90
3256;DHT22;1640;48.504;9.224;2023-04-30T04:49:38;8.80;99.90
3256;DHT22;1640;48.504;9.224;2023-04-30T04:52:07;8.90;99.90
3256;DHT22;1640;48.504;9.224;2023-04-30T04:54:35;9.00;99.90
3256;DHT22;1640;48.504;9.224;2023-04-30T04:57:02;9.10;99.90
3256;DHT22;1640;48.504;9.224;2023-04-30T04:59:30;9.20;99.90
3256;DHT22;1640;48.504;9.224;2023-04-30T05:01:57;9.30;99.90
3256;DHT22;1640;48.504;9.224;2023-04-30T05:04:25;9.40;99.90
3256;DHT22;1640;48.504;9.224;2023-04-30T05:06:53;9.50;99.90
3256;DHT22;1640;48.504;9.224;2023-04-30T05:09:22;9.70;99.90
3256;DHT22;1640;48.504;9.224;2023-04-30T05:11:50;9.80;99.90
3256;DHT22;1640;48.504;9.224;2023-04-30T05:14:17;9.90;99.90
3256;DHT22;1640;48.504;9.224;2023-04-30T05:16:46;10.00;99.90
3256;DHT22;1640;48.504;9.224;2023-04-30T05:19:14;10.10;99.90
3256;DHT22;1640;48.504;9.224;2023-04-30T05:21:41;10.20;99.90
3256;DHT22;1640;48.504;9.224;2023-04-30T05:24:09;10.40;99.90
3256;DHT22;1640;48.504;9.224;2023-04-30T05:26:38;10.30;99.90
3256;DHT22;1640;48.504;9.224;2023-04-30T05:29:05;10.30;99.90
3256;DHT22;1640;48.504;9.224;2023-04-30T05:31:33;10.30;99.90
3256;DHT22;1640;48.504;9.224;2023-04-30T05:34:01;10.30;99.90
3256;DHT22;1640;48.504;9.224;2023-04-30T05:36:28;10.30;99.90
3256;DHT22;1640;48.504;9.224;2023-04-30T05:38:56;10.30;99.90
3256;DHT22;1640;48.504;9.224;2023-04-30T05:41:23;10.20;99.90
3256;DHT22;1640;48.504;9.224;2023-04-30T05:43:52;10.20;99.90
3256;DHT22;1640;48.504;9.224;2023-04-30T05:46:20;10.20;99.90
3256;DHT22;1640;48.504;9.224;2023-04-30T05:48:48;10.30;99.90
3256;DHT22;1640;48.504;9.224;2023-04-30T05:51:15;10.30;99.90
3256;DHT22;1640;48.504;9.224;2023-04-30T05:53:43;10.30;99.90
3256;DHT22;1640;48.504;9.224;2023-04-30T05:56:10;10.40;99.90
3256;DHT22;1640;48.504;9.224;2023-04-30T05:58:38;10.40;99.90
3256;DHT22;1640;48.504;9.224;2023-04-30T06:01:07;10.50;99.90
3256;DHT22;1640;48.504;9.224;2023-04-30T06:03:36;10.60;99.90
3256;DHT22;1640;48.504;9.224;2023-04-30T06:06:04;10.70;99.90
3256;DHT22;1640;48.504;9.224;2023-04-30T06:08:31;10.80;99.90
3256;DHT22;1640;48.504;9.224;2023-04-30T06:10:59;10.90;99.90
3256;DHT22;1640;48.504;9.224;2023-04-30T06:13:28;11.10;99.90
3256;DHT22;1640;48.504;9.224;2023-04-30T06:15:56;11.30;99.90
3256;DHT22;1640;48.504;9.224;2023-04-30T06:18:25;11.50;99.90
3256;DHT22;1640;48.504;9.224;2023-04-30T06:20:52;11.70;99.90
3256;DHT22;1640;48.504;9.224;2023-04-30T06:23:20;12.00;99.90
3256;DHT22;1640;48.504;9.224;2023-04-30T06:25:47;12.20;2.00
3256;DHT22;1640;48.504;9.224;2023-04-30T06:28:15;12.30;2.90
3256;DHT22;1640;48.504;9.224;2023-04-30T06:30:42;12.30;11.50
3256;DHT22;1640;48.504;9.224;2023-04-30T06:33:10;12.50;8.60
3256;DHT22;1640;48.504;9.224;2023-04-30T06:35:39;12.60;12.50
3256;DHT22;1640;48.504;9.224;2023-04-30T06:38:07;12.80;16.60
3256;DHT22;1640;48.504;9.224;2023-04-30T06:40:34;12.80;22.90
3256;DHT22;1640;48.504;9.224;2023-04-30T06:43:02;12.80;20.40
3256;DHT22;1640;48.504;9.224;2023-04-30T06:45:30;12.90;22.70
3256;DHT22;1640;48.504;9.224;2023-04-30T06:47:57;13.00;23.00
3256;DHT22;1640;48.504;9.224;2023-04-30T06:50:25;13.10;28.10
3256;DHT22;1640;48.504;9.224;2023-04-30T06:52:54;13.10;34.60
3256;DHT22;1640;48.504;9.224;2023-04-30T06:55:21;13.10;34.10
3256;DHT22;1640;48.504;9.224;2023-04-30T06:57:49;13.30;32.80
3256;DHT22;1640;48.504;9.224;2023-04-30T07:00:16;13.40;40.30
3256;DHT22;1640;48.504;9.224;2023-04-30T07:02:44;13.30;38.10
3256;DHT22;1640;48.504;9.224;2023-04-30T07:05:12;13.40;39.10
3256;DHT22;1640;48.504;9.224;2023-04-30T07:07:41;13.40;42.50
3256;DHT22;1640;48.504;9.224;2023-04-30T07:10:10;13.60;43.30
3256;DHT22;1640;48.504;9.224;2023-04-30T07:12:37;13.80;44.40
3256;DHT22;1640;48.504;9.224;2023-04-30T07:15:06;13.90;51.30
3256;DHT22;1640;48.504;9.224;2023-04-30T07:17:34;14.00;50.20
3256;DHT22;1640;48.504;9.224;2023-04-30T07:20:02;14.20;52.90
3256;DHT22;1640;48.504;9.224;2023-04-30T07:22:30;14.30;53.70
3256;DHT22;1640;48.504;9.224;2023-04-30T07:24:58;14.50;53.10
3256;DHT22;1640;48.504;9.224;2023-04-30T07:27:27;14.70;53.50
3256;DHT22;1640;48.504;9.224;2023-04-30T07:29:55;14.90;60.10
3256;DHT22;1640;48.504;9.224;2023-04-30T07:32:22;15.10;62.90
3256;DHT22;1640;48.504;9.224;2023-04-30T07:34:52;15.10;63.30
3256;DHT22;1640;48.504;9.224;2023-04-30T07:37:19;15.10;64.90
3256;DHT22;1640;48.504;9.224;2023-04-30T07:39:47;15.10;64.90
3256;DHT22;1640;48.504;9.224;2023-04-30T07:42:14;15.10;68.00
3256;DHT22;1640;48.504;9.224;2023-04-30T07:44:43;15.00;67.90
3256;DHT22;1640;48.504;9.224;2023-04-30T07:47:11;14.80;66.00
3256;DHT22;1640;48.504;9.224;2023-04-30T07:49:38;14.90;64.50
3256;DHT22;1640;48.504;9.224;2023-04-30T07:52:06;15.00;66.90
3256;DHT22;1640;48.504;9.224;2023-04-30T07:54:36;14.90;67.80
3256;DHT22;1640;48.504;9.224;2023-04-30T07:57:03;14.90;65.00
3256;DHT22;1640;48.504;9.224;2023-04-30T07:59:31;14.90;67.30
3256;DHT22;1640;48.504;9.224;2023-04-30T08:02:00;14.90;67.20
3256;DHT22;1640;48.504;9.224;2023-04-30T08:04:28;14.80;69.20
3256;DHT22;1640;48.504;9.224;2023-04-30T08:06:56;14.90;70.20
3256;DHT22;1640;48.504;9.224;2023-04-30T08:09:23;15.00;72.60
3256;DHT22;1640;48.504;9.224;2023-04-30T08:11:51;15.00;73.40
3256;DHT22;1640;48.504;9.224;2023-04-30T08:14:19;14.90;73.10
3256;DHT22;1640;48.504;9.224;2023-04-30T08:16:47;14.90;73.20
3256;DHT22;1640;48.504;9.224;2023-04-30T08:19:16;15.00;72.90
3256;DHT22;1640;48.504;9.224;2023-04-30T08:21:43;15.10;73.20
3256;DHT22;1640;48.504;9.224;2023-04-30T08:24:11;15.30;73.10
3256;DHT22;1640;48.504;9.224;2023-04-30T08:26:38;15.70;72.90
3256;DHT22;1640;48.504;9.224;2023-04-30T08:29:06;15.90;73.10
3256;DHT22;1640;48.504;9.224;2023-04-30T08:31:34;16.10;72.10
3256;DHT22;1640;48.504;9.224;2023-04-30T08:34:02;16.20;71.10
3256;DHT22;1640;48.504;9.224;2023-04-30T08:36:31;16.20;71.80
3256;DHT22;1640;48.504;9.224;2023-04-30T08:38:58;16.30;72.50
3256;DHT22;1640;48.504;9.224;2023-04-30T08:41:31;16.50;71.90
3256;DHT22;1640;48.504;9.224;2023-04-30T08:44:00;16.70;70.20
3256;DHT22;1640;48.504;9.224;2023-04-30T08:46:31;16.70;69.50
3256;DHT22;1640;48.504;9.224;2023-04-30T08:49:00;16.50;67.90
3256;DHT22;1640;48.504;9.224;2023-04-30T08:51:31;16.60;69.50
3256;DHT22;1640;48.504;9.224;2023-04-30T08:53:59;16.60;68.00
3256;DHT22;1640;48.504;9.224;2023-04-30T08:56:26;16.50;67.00
3256;DHT22;1640;48.504;9.224;2023-04-30T08:58:56;16.60;68.20
3256;DHT22;1640;48.504;9.224;2023-04-30T09:01:24;17.00;68.80
3256;DHT22;1640;48.504;9.224;2023-04-30T09:03:52;17.40;67.80
3256;DHT22;1640;48.504;9.224;2023-04-30T09:06:20;17.20;67.90
3256;DHT22;1640;48.504;9.224;2023-04-30T09:08:49;17.10;65.60
3256;DHT22;1640;48.504;9.224;2023-04-30T09:11:22;16.90;64.90
3256;DHT22;1640;48.504;9.224;2023-04-30T09:13:50;17.00;66.30
3256;DHT22;1640;48.504;9.224;2023-04-30T09:16:19;17.20;65.70
3256;DHT22;1640;48.504;9.224;2023-04-30T09:18:47;17.20;63.30
3256;DHT22;1640;48.504;9.224;2023-04-30T09:21:15;17.30;63.30
3256;DHT22;1640;48.504;9.224;2023-04-30T09:23:57;17.30;62.30
3256;DHT22;1640;48.504;9.224;2023-04-30T09:26:33;17.50;62.40
3256;DHT22;1640;48.504;9.224;2023-04-30T09:29:01;17.60;60.30
3256;DHT22;1640;48.504;9.224;2023-04-30T09:31:33;17.80;58.90
3256;DHT22;1640;48.504;9.224;2023-04-30T09:34:01;18.00;59.20
3256;DHT22;1640;48.504;9.224;2023-04-30T09:36:29;18.30;59.50
3256;DHT22;1640;48.504;9.224;2023-04-30T09:39:05;18.20;56.30
3256;DHT22;1640;48.504;9.224;2023-04-30T09:41:34;18.10;57.80
3256;DHT22;1640;48.504;9.224;2023-04-30T09:44:01;18.00;57.80
3256;DHT22;1640;48.504;9.224;2023-04-30T09:46:31;18.10;58.20
3256;DHT22;1640;48.504;9.224;2023-04-30T09:49:00;18.30;55.90
3256;DHT22;1640;48.504;9.224;2023-04-30T09:51:28;18.60;55.20
3256;DHT22;1640;48.504;9.224;2023-04-30T09:54:01;18.50;55.60
3256;DHT22;1640;48.504;9.224;2023-04-30T09:56:32;18.50;56.10
3256;DHT22;1640;48.504;9.224;2023-04-30T09:59:01;18.50;56.90
3256;DHT22;1640;48.504;9.224;2023-04-30T10:01:30;18.60;56.20
3256;DHT22;1640;48.504;9.224;2023-04-30T10:03:58;18.40;58.80
3256;DHT22;1640;48.504;9.224;2023-04-30T10:06:26;18.30;58.80
3256;DHT22;1640;48.504;9.224;2023-04-30T10:08:57;18.30;59.60
3256;DHT22;1640;48.504;9.224;2023-04-30T10:11:27;18.30;59.20
3256;DHT22;1640;48.504;9.224;2023-04-30T10:13:59;18.20;58.80
3256;DHT22;1640;48.504;9.224;2023-04-30T10:16:39;17.90;59.50
3256;DHT22;1640;48.504;9.224;2023-04-30T10:19:12;17.50;59.90
3256;DHT22;1640;48.504;9.224;2023-04-30T10:21:42;17.30;60.70
3256;DHT22;1640;48.504;9.224;2023-04-30T10:24:14;17.30;61.90
3256;DHT22;1640;48.504;9.224;2023-04-30T10:26:45;17.40;61.70
3256;DHT22;1640;48.504;9.224;2023-04-30T10:29:13;17.50;59.90
3256;DHT22;1640;48.504;9.224;2023-04-30T10:31:43;17.80;58.80
3256;DHT22;1640;48.504;9.224;2023-04-30T10:34:18;17.90;58.40
3256;DHT22;1640;48.504;9.224;2023-04-30T10:36:50;17.80;57.50
3256;DHT22;1640;48.504;9.224;2023-04-30T10:39:22;17.80;58.00
3256;DHT22;1640;48.504;9.224;2023-04-30T10:42:00;18.10;56.90
3256;DHT22;1640;48.504;9.224;2023-04-30T10:44:31;17.80;56.10
3256;DHT22;1640;48.504;9.224;2023-04-30T10:46:59;17.90;55.20
3256;DHT22;1640;48.504;9.224;2023-04-30T10:49:27;17.80;55.80
3256;DHT22;1640;48.504;9.224;2023-04-30T10:51:58;17.80;55.00
3256;DHT22;1640;48.504;9.224;2023-04-30T10:54:28;17.70;56.90
3256;DHT22;1640;48.504;9.224;2023-04-30T10:57:08;17.90;56.10
3256;DHT22;1640;48.504;9.224;2023-04-30T10:59:37;17.90;54.40
3256;DHT22;1640;48.504;9.224;2023-04-30T11:02:10;18.00;55.10
3256;DHT22;1640;48.504;9.224;2023-04-30T11:05:07;18.20;54.70
3256;DHT22;1640;48.504;9.224;2023-04-30T11:07:35;18.40;55.20
3256;DHT22;1640;48.504;9.224;2023-04-30T11:10:06;18.50;54.70
3256;DHT22;1640;48.504;9.224;2023-04-30T11:12:40;18.00;55.50
3256;DHT22;1640;48.504;9.224;2023-04-30T11:15:12;18.00;56.10
3256;DHT22;1640;48.504;9.224;2023-04-30T11:17:42;18.10;56.20
3256;DHT22;1640;48.504;9.224;2023-04-30T11:20:12;18.20;54.80
3256;DHT22;1640;48.504;9.224;2023-04-30T11:22:40;18.10;56.10
3256;DHT22;1640;48.504;9.224;2023-04-30T11:25:10;18.00;56.70
3256;DHT22;1640;48.504;9.224;2023-04-30T11:27:40;18.10;54.30
3256;DHT22;1640;48.504;9.224;2023-04-30T11:30:11;18.20;55.40
3256;DHT22;1640;48.504;9.224;2023-04-30T11:32:42;18.40;56.60
3256;DHT22;1640;48.504;9.224;2023-04-30T11:35:11;18.30;54.40
3256;DHT22;1640;48.504;9.224;2023-04-30T11:37:39;18.20;55.40
3256;DHT22;1640;48.504;9.224;2023-04-30T11:40:11;18.20;55.20
3256;DHT22;1640;48.504;9.224;2023-04-30T11:42:40;18.60;54.40
3256;DHT22;1640;48.504;9.224;2023-04-30T11:45:10;18.50;54.80
3256;DHT22;1640;48.504;9.224;2023-04-30T11:47:42;19.00;55.10
3256;DHT22;1640;48.504;9.224;2023-04-30T11:50:12;19.30;52.70
3256;DHT22;1640;48.504;9.224;2023-04-30T11:52:40;19.40;50.60
3256;DHT22;1640;48.504;9.224;2023-04-30T11:55:14;19.20;51.70
3256;DHT22;1640;48.504;9.224;2023-04-30T11:57:43;19.00;53.30
3256;DHT22;1640;48.504;9.224;2023-04-30T12:00:13;19.20;52.40
3256;DHT22;1640;48.504;9.224;2023-04-30T12:02:41;19.30;52.40
3256;DHT22;1640;48.504;9.224;2023-04-30T12:05:14;19.40;52.80
3256;DHT22;1640;48.504;9.224;2023-04-30T12:07:46;19.40;53.10
3256;DHT22;1640;48.504;9.224;2023-04-30T12:10:17;19.70;52.00
3256;DHT22;1640;48.504;9.224;2023-04-30T12:12:47;19.70;51.00
3256;DHT22;1640;48.504;9.224;2023-04-30T12:15:17;19.60;50.20
3256;DHT22;1640;48.504;9.224;2023-04-30T12:17:48;19.30;51.40
3256;DHT22;1640;48.504;9.224;2023-04-30T12:20:15;19.50;52.10
3256;DHT22;1640;48.504;9.224;2023-04-30T12:22:44;19.70;50.10
3256;DHT22;1640;48.504;9.224;2023-04-30T12:25:12;19.70;48.20
3256;DHT22;1640;48.504;9.224;2023-04-30T12:27:45;19.70;49.40
3256;DHT22;1640;48.504;9.224;2023-04-30T12:30:14;19.80;49.90
3256;DHT22;1640;48.504;9.224;2023-04-30T12:32:43;19.90;48.90
3256;DHT22;1640;48.504;9.224;2023-04-30T12:35:14;20.30;50.80
3256;DHT22;1640;48.504;9.224;2023-04-30T12:37:42;20.50;47.10
3256;DHT22;1640;48.504;9.224;2023-04-30T12:40:11;20.20;47.20
3256;DHT22;1640;48.504;9.224;2023-04-30T12:42:42;20.10;48.00
3256;DHT22;1640;48.504;9.224;2023-04-30T12:45:10;20.20;46.80
3256;DHT22;1640;48.504;9.224;2023-04-30T12:47:39;20.10;47.40
3256;DHT22;1640;48.504;9.224;2023-04-30T12:50:08;20.00;47.50
3256;DHT22;1640;48.504;9.224;2023-04-30T12:52:38;20.00;47.20
3256;DHT22;1640;48.504;9.224;2023-04-30T12:55:17;20.10;48.00
3256;DHT22;1640;48.504;9.224;2023-04-30T12:58:05;20.00;47.80
3256;DHT22;1640;48.504;9.224;2023-04-30T13:00:48;19.90;47.80
3256;DHT22;1640;48.504;9.224;2023-04-30T13:03:17;19.60;47.40
3256;DHT22;1640;48.504;9.224;2023-04-30T13:05:46;19.80;50.80
3256;DHT22;1640;48.504;9.224;2023-04-30T13:08:15;20.10;50.10
3256;DHT22;1640;48.504;9.224;2023-04-30T13:10:43;20.40;50.10
3256;DHT22;1640;48.504;9.224;2023-04-30T13:13:14;20.70;47.50
3256;DHT22;1640;48.504;9.224;2023-04-30T13:15:42;20.70;46.00
3256;DHT22;1640;48.504;9.224;2023-04-30T13:18:10;20.80;44.20
3256;DHT22;1640;48.504;9.224;2023-04-30T13:20:38;20.60;45.50
3256;DHT22;1640;48.504;9.224;2023-04-30T13:23:06;20.10;45.20
3256;DHT22;1640;48.504;9.224;2023-04-30T13:25:34;20.00;46.00
3256;DHT22;1640;48.504;9.224;2023-04-30T13:28:02;19.90;47.00
3256;DHT22;1640;48.504;9.224;2023-04-30T13:30:31;19.80;47.10
3256;DHT22;1640;48.504;9.224;2023-04-30T13:32:59;19.70;46.80
3256;DHT22;1640;48.504;9.224;2023-04-30T13:35:28;19.70;48.60
3256;DHT22;1640;48.504;9.224;2023-04-30T13:37:58;19.80;49.00
3256;DHT22;1640;48.504;9.224;2023-04-30T13:40:33;19.50;48.50
3256;DHT22;1640;48.504;9.224;2023-04-30T13:43:02;19.30;49.80
3256;DHT22;1640;48.504;9.224;2023-04-30T13:45:31;19.20;49.90
3256;DHT22;1640;48.504;9.224;2023-04-30T13:47:59;19.20;50.10
3256;DHT22;1640;48.504;9.224;2023-04-30T13:50:27;19.30;49.70
3256;DHT22;1640;48.504;9.224;2023-04-30T13:52:54;19.30;48.60
3256;DHT22;1640;48.504;9.224;2023-04-30T13:55:24;19.50;50.40
3256;DHT22;1640;48.504;9.224;2023-04-30T13:57:52;19.50;49.30
3256;DHT22;1640;48.504;9.224;2023-04-30T14:00:20;19.50;49.70
3256;DHT22;1640;48.504;9.224;2023-04-30T14:02:49;19.50;49.50
3256;DHT22;1640;48.504;9.224;2023-04-30T14:05:16;19.90;49.50
3256;DHT22;1640;48.504;9.224;2023-04-30T14:07:44;20.40;48.70
3256;DHT22;1640;48.504;9.224;2023-04-30T14:10:11;20.50;47.50
3256;DHT22;1640;48.504;9.224;2023-04-30T14:12:39;20.70;47.60
3256;DHT22;1640;48.504;9.224;2023-04-30T14:15:10;20.80;48.90
3256;DHT22;1640;48.504;9.224;2023-04-30T14:17:37;20.60;47.60
3256;DHT22;1640;48.504;9.224;2023-04-30T14:20:08;20.40;47.80
3256;DHT22;1640;48.504;9.224;2023-04-30T14:22:36;20.20;47.20
3256;DHT22;1640;48.504;9.224;2023-04-30T14:25:05;20.20;48.00
3256;DHT22;1640;48.504;9.224;2023-04-30T14:27:33;20.00;47.90
3256;DHT22;1640;48.504;9.224;2023-04-30T14:30:00;20.00;48.00
3256;DHT22;1640;48.504;9.224;2023-04-30T14:32:28;20.00;49.10
3256;DHT22;1640;48.504;9.224;2023-04-30T14:34:56;20.00;48.50
3256;DHT22;1640;48.504;9.224;2023-04-30T14:37:25;19.90;47.80
3256;DHT22;1640;48.504;9.224;2023-04-30T14:39:53;19.90;49.90
3256;DHT22;1640;48.504;9.224;2023-04-30T14:42:20;20.20;50.40
3256;DHT22;1640;48.504;9.224;2023-04-30T14:44:48;20.60;46.30
3256;DHT22;1640;48.504;9.224;2023-04-30T14:47:15;20.90;46.70
3256;DHT22;1640;48.504;9.224;2023-04-30T14:49:43;21.20;44.10
3256;DHT22;1640;48.504;9.224;2023-04-30T14:52:10;21.40;44.20
3256;DHT22;1640;48.504;9.224;2023-04-30T14:54:39;21.40;44.00
3256;DHT22;1640;48.504;9.224;2023-04-30T14:57:07;21.50;45.60
3256;DHT22;1640;48.504;9.224;2023-04-30T14:59:34;22.00;43.60
3256;DHT22;1640;48.504;9.224;2023-04-30T15:02:05;22.50;41.10
3256;DHT22;1640;48.504;9.224;2023-04-30T15:04:33;22.30;42.60
3256;DHT22;1640;48.504;9.224;2023-04-30T15:07:01;22.00;41.30
3256;DHT22;1640;48.504;9.224;2023-04-30T15:09:29;21.80;43.40
3256;DHT22;1640;48.504;9.224;2023-04-30T15:11:58;21.90;43.40
3256;DHT22;1640;48.504;9.224;2023-04-30T15:14:25;21.70;41.70
3256;DHT22;1640;48.504;9.224;2023-04-30T15:16:53;21.40;43.40
3256;DHT22;1640;48.504;9.224;2023-04-30T15:19:21;21.00;44.20
3256;DHT22;1640;48.504;9.224;2023-04-30T15:21:49;21.00;44.20
3256;DHT22;1640;48.504;9.224;2023-04-30T15:24:17;21.50;44.00
3256;DHT22;1640;48.504;9.224;2023-04-30T15:26:45;22.00;44.50
3256;DHT22;1640;48.504;9.224;2023-04-30T15:29:14;22.30;39.60
3256;DHT22;1640;48.504;9.224;2023-04-30T15:31:41;21.80;42.30
3256;DHT22;1640;48.504;9.224;2023-04-30T15:34:09;21.40;42.30
3256;DHT22;1640;48.504;9.224;2023-04-30T15:36:36;21.00;43.30
3256;DHT22;1640;48.504;9.224;2023-04-30T15:39:05;20.80;44.20
3256;DHT22;1640;48.504;9.224;2023-04-30T15:41:32;21.00;44.10
3256;DHT22;1640;48.504;9.224;2023-04-30T15:44:00;21.30;42.80
3256;DHT22;1640;48.504;9.224;2023-04-30T15:46:29;21.20;42.20
3256;DHT22;1640;48.504;9.224;2023-04-30T15:48:57;20.90;43.70
3256;DHT22;1640;48.504;9.224;2023-04-30T15:51:25;20.80;43.20
3256;DHT22;1640;48.504;9.224;2023-04-30T15:53:54;20.70;44.50
3256;DHT22;1640;48.504;9.224;2023-04-30T15:56:21;20.20;44.40
3256;DHT22;1640;48.504;9.224;2023-04-30T15:58:50;19.90;45.50
3256;DHT22;1640;48.504;9.224;2023-04-30T16:01:18;19.60;47.00
3256;DHT22;1640;48.504;9.224;2023-04-30T16:03:47;19.40;48.50
3256;DHT22;1640;48.504;9.224;2023-04-30T16:06:15;19.50;49.30
3256;DHT22;1640;48.504;9.224;2023-04-30T16:08:43;19.60;49.30
3256;DHT22;1640;48.504;9.224;2023-04-30T16:11:11;19.70;49.30
3256;DHT22;1640;48.504;9.224;2023-04-30T16:13:39;19.90;50.40
3256;DHT22;1640;48.504;9.224;2023-04-30T16:16:07;20.00;47.60